sensor_id;sensor_type;location;lat;lon;timestamp;P1;durP1;ratioP1;P2;durP2;ratioP2
67140;SDS011;54058;52.010;5.546;2023-03-14T00:01:22;8.10;;;1.95;;
67140;SDS011;54058;52.010;5.546;2023-03-14T00:03:48;7.43;;;1.63;;
67140;SDS011;54058;52.010;5.546;2023-03-14T00:06:14;5.90;;;1.83;;
67140;SDS011;54058;52.010;5.546;2023-03-14T00:08:41;7.70;;;1.67;;
67140;SDS011;54058;52.010;5.546;2023-03-14T00:11:09;14.32;;;2.40;;
67140;SDS011;54058;52.010;5.546;2023-03-14T00:13:36;13.48;;;2.10;;
67140;SDS011;54058;52.010;5.546;2023-03-14T00:16:06;11.88;;;1.75;;
67140;SDS011;54058;52.010;5.546;2023-03-14T00:18:34;8.82;;;1.83;;
67140;SDS011;54058;52.010;5.546;2023-03-14T00:21:00;8.68;;;1.92;;
67140;SDS011;54058;52.010;5.546;2023-03-14T00:25:54;11.32;;;1.83;;
67140;SDS011;54058;52.010;5.546;2023-03-14T00:28:28;8.13;;;2.03;;
67140;SDS011;54058;52.010;5.546;2023-03-14T00:30:54;12.57;;;2.03;;
67140;SDS011;54058;52.010;5.546;2023-03-14T00:33:20;10.05;;;1.90;;
67140;SDS011;54058;52.010;5.546;2023-03-14T00:36:19;11.07;;;2.67;;
67140;SDS011;54058;52.010;5.546;2023-03-14T00:38:39;9.23;;;1.88;;
67140;SDS011;54058;52.010;5.546;2023-03-14T00:41:07;11.82;;;2.05;;
67140;SDS011;54058;52.010;5.546;2023-03-14T00:43:34;10.98;;;2.42;;
67140;SDS011;54058;52.010;5.546;2023-03-14T00:45:59;13.70;;;2.30;;
67140;SDS011;54058;52.010;5.546;2023-03-14T00:48:25;12.07;;;1.85;;
67140;SDS011;54058;52.010;5.546;2023-03-14T00:50:51;10.50;;;1.63;;
67140;SDS011;54058;52.010;5.546;2023-03-14T00:53:17;10.52;;;1.90;;
67140;SDS011;54058;52.010;5.546;2023-03-14T00:55:43;8.07;;;1.92;;
67140;SDS011;54058;52.010;5.546;2023-03-14T00:58:10;6.80;;;1.70;;
67140;SDS011;54058;52.010;5.546;2023-03-14T01:00:36;11.70;;;1.60;;
67140;SDS011;54058;52.010;5.546;2023-03-14T01:03:03;9.43;;;1.30;;
67140;SDS011;54058;52.010;5.546;2023-03-14T01:05:28;4.07;;;1.27;;
67140;SDS011;54058;52.010;5.546;2023-03-14T01:07:54;6.28;;;1.60;;
67140;SDS011;54058;52.010;5.546;2023-03-14T01:10:20;9.90;;;1.80;;
67140;SDS011;54058;52.010;5.546;2023-03-14T01:12:46;7.07;;;1.88;;
67140;SDS011;54058;52.010;5.546;2023-03-14T01:15:11;6.45;;;1.10;;
67140;SDS011;54058;52.010;5.546;2023-03-14T01:17:37;7.75;;;1.35;;
67140;SDS011;54058;52.010;5.546;2023-03-14T01:20:04;7.03;;;1.20;;
67140;SDS011;54058;52.010;5.546;2023-03-14T01:22:34;7.65;;;1.38;;
67140;SDS011;54058;52.010;5.546;2023-03-14T01:25:00;9.32;;;1.35;;
67140;SDS011;54058;52.010;5.546;2023-03-14T01:27:25;7.47;;;1.25;;
67140;SDS011;54058;52.010;5.546;2023-03-14T01:29:51;7.75;;;1.75;;
67140;SDS011;54058;52.010;5.546;2023-03-14T01:32:17;7.82;;;1.15;;
67140;SDS011;54058;52.010;5.546;2023-03-14T01:34:42;4.68;;;1.17;;
67140;SDS011;54058;52.010;5.546;2023-03-14T01:37:08;9.15;;;1.50;;
67140;SDS011;54058;52.010;5.546;2023-03-14T01:39:33;6.75;;;1.13;;
67140;SDS011;54058;52.010;5.546;2023-03-14T01:42:00;9.40;;;1.20;;
67140;SDS011;54058;52.010;5.546;2023-03-14T01:44:26;16.58;;;2.28;;
67140;SDS011;54058;52.010;5.546;2023-03-14T01:46:51;8.77;;;1.05;;
67140;SDS011;54058;52.010;5.546;2023-03-14T01:49:22;8.73;;;1.98;;
67140;SDS011;54058;52.010;5.546;2023-03-14T01:52:05;11.38;;;1.83;;
67140;SDS011;54058;52.010;5.546;2023-03-14T01:54:36;7.10;;;1.27;;
67140;SDS011;54058;52.010;5.546;2023-03-14T01:59:46;9.05;;;1.67;;
67140;SDS011;54058;52.010;5.546;2023-03-14T02:02:18;7.95;;;1.60;;
67140;SDS011;54058;52.010;5.546;2023-03-14T02:04:44;8.65;;;1.65;;
67140;SDS011;54058;52.010;5.546;2023-03-14T02:09:44;7.03;;;1.40;;
67140;SDS011;54058;52.010;5.546;2023-03-14T02:12:11;9.85;;;1.50;;
67140;SDS011;54058;52.010;5.546;2023-03-14T02:14:40;7.25;;;1.40;;
67140;SDS011;54058;52.010;5.546;2023-03-14T02:17:11;9.18;;;1.50;;
67140;SDS011;54058;52.010;5.546;2023-03-14T02:22:14;7.00;;;1.88;;
67140;SDS011;54058;52.010;5.546;2023-03-14T02:24:46;7.07;;;1.67;;
67140;SDS011;54058;52.010;5.546;2023-03-14T02:27:29;9.07;;;1.52;;
67140;SDS011;54058;52.010;5.546;2023-03-14T02:29:56;8.73;;;2.13;;
67140;SDS011;54058;52.010;5.546;2023-03-14T02:32:25;11.63;;;2.47;;
67140;SDS011;54058;52.010;5.546;2023-03-14T02:37:19;7.25;;;2.13;;
67140;SDS011;54058;52.010;5.546;2023-03-14T02:39:48;7.78;;;2.15;;
67140;SDS011;54058;52.010;5.546;2023-03-14T02:42:14;6.28;;;1.50;;
67140;SDS011;54058;52.010;5.546;2023-03-14T02:44:54;4.65;;;1.33;;
67140;SDS011;54058;52.010;5.546;2023-03-14T02:47:44;5.80;;;1.60;;
67140;SDS011;54058;52.010;5.546;2023-03-14T02:50:15;7.85;;;1.63;;
67140;SDS011;54058;52.010;5.546;2023-03-14T02:52:45;6.32;;;1.63;;
67140;SDS011;54058;52.010;5.546;2023-03-14T02:55:10;5.22;;;1.27;;
67140;SDS011;54058;52.010;5.546;2023-03-14T02:57:36;7.55;;;1.67;;
67140;SDS011;54058;52.010;5.546;2023-03-14T03:00:02;8.48;;;1.50;;
67140;SDS011;54058;52.010;5.546;2023-03-14T03:02:32;10.30;;;1.67;;
67140;SDS011;54058;52.010;5.546;2023-03-14T03:04:58;6.55;;;1.48;;
67140;SDS011;54058;52.010;5.546;2023-03-14T03:07:23;8.88;;;1.92;;
67140;SDS011;54058;52.010;5.546;2023-03-14T03:09:50;6.65;;;1.77;;
67140;SDS011;54058;52.010;5.546;2023-03-14T03:12:15;10.90;;;1.90;;
67140;SDS011;54058;52.010;5.546;2023-03-14T03:14:41;10.73;;;2.03;;
67140;SDS011;54058;52.010;5.546;2023-03-14T03:17:06;11.02;;;2.00;;
67140;SDS011;54058;52.010;5.546;2023-03-14T03:19:32;9.45;;;1.52;;
67140;SDS011;54058;52.010;5.546;2023-03-14T03:21:58;6.53;;;1.77;;
67140;SDS011;54058;52.010;5.546;2023-03-14T03:24:24;8.95;;;1.70;;
67140;SDS011;54058;52.010;5.546;2023-03-14T03:26:50;4.43;;;1.48;;
67140;SDS011;54058;52.010;5.546;2023-03-14T03:29:16;9.32;;;1.73;;
67140;SDS011;54058;52.010;5.546;2023-03-14T03:31:42;4.22;;;1.33;;
67140;SDS011;54058;52.010;5.546;2023-03-14T03:34:10;9.98;;;2.72;;
67140;SDS011;54058;52.010;5.546;2023-03-14T03:36:36;8.68;;;1.60;;
67140;SDS011;54058;52.010;5.546;2023-03-14T03:39:02;10.38;;;1.73;;
67140;SDS011;54058;52.010;5.546;2023-03-14T03:41:28;8.23;;;1.88;;
67140;SDS011;54058;52.010;5.546;2023-03-14T03:43:55;5.47;;;1.67;;
67140;SDS011;54058;52.010;5.546;2023-03-14T03:46:21;13.27;;;1.88;;
67140;SDS011;54058;52.010;5.546;2023-03-14T03:48:47;6.25;;;1.20;;
67140;SDS011;54058;52.010;5.546;2023-03-14T03:51:13;7.30;;;1.63;;
67140;SDS011;54058;52.010;5.546;2023-03-14T03:56:06;7.45;;;1.73;;
67140;SDS011;54058;52.010;5.546;2023-03-14T03:58:32;7.15;;;1.75;;
67140;SDS011;54058;52.010;5.546;2023-03-14T04:00:57;6.40;;;1.63;;
67140;SDS011;54058;52.010;5.546;2023-03-14T04:03:23;10.20;;;1.85;;
67140;SDS011;54058;52.010;5.546;2023-03-14T04:06:02;6.30;;;1.48;;
67140;SDS011;54058;52.010;5.546;2023-03-14T04:08:30;12.60;;;1.63;;
67140;SDS011;54058;52.010;5.546;2023-03-14T04:10:57;8.55;;;2.05;;
67140;SDS011;54058;52.010;5.546;2023-03-14T04:13:23;11.45;;;1.80;;
67140;SDS011;54058;52.010;5.546;2023-03-14T04:15:50;6.38;;;1.63;;
67140;SDS011;54058;52.010;5.546;2023-03-14T04:18:16;11.32;;;1.80;;
67140;SDS011;54058;52.010;5.546;2023-03-14T04:20:42;4.95;;;1.60;;
67140;SDS011;54058;52.010;5.546;2023-03-14T04:23:08;8.05;;;2.55;;
67140;SDS011;54058;52.010;5.546;2023-03-14T04:25:33;9.52;;;2.08;;
67140;SDS011;54058;52.010;5.546;2023-03-14T04:27:59;7.40;;;1.60;;
67140;SDS011;54058;52.010;5.546;2023-03-14T04:30:24;12.65;;;2.20;;
67140;SDS011;54058;52.010;5.546;2023-03-14T04:32:50;10.85;;;2.28;;
67140;SDS011;54058;52.010;5.546;2023-03-14T04:35:16;14.18;;;2.40;;
67140;SDS011;54058;52.010;5.546;2023-03-14T04:37:41;5.30;;;1.55;;
67140;SDS011;54058;52.010;5.546;2023-03-14T04:40:08;8.43;;;2.05;;
67140;SDS011;54058;52.010;5.546;2023-03-14T04:42:35;7.78;;;1.80;;
67140;SDS011;54058;52.010;5.546;2023-03-14T04:45:00;10.50;;;1.80;;
67140;SDS011;54058;52.010;5.546;2023-03-14T04:47:26;7.75;;;2.05;;
67140;SDS011;54058;52.010;5.546;2023-03-14T04:49:52;5.40;;;1.67;;
67140;SDS011;54058;52.010;5.546;2023-03-14T04:52:18;8.63;;;1.75;;
67140;SDS011;54058;52.010;5.546;2023-03-14T04:54:44;9.05;;;1.58;;
67140;SDS011;54058;52.010;5.546;2023-03-14T04:57:09;8.02;;;1.63;;
67140;SDS011;54058;52.010;5.546;2023-03-14T04:59:35;6.88;;;1.50;;
67140;SDS011;54058;52.010;5.546;2023-03-14T05:02:00;7.15;;;1.50;;
67140;SDS011;54058;52.010;5.546;2023-03-14T05:04:26;8.10;;;1.50;;
67140;SDS011;54058;52.010;5.546;2023-03-14T05:06:52;10.32;;;1.25;;
67140;SDS011;54058;52.010;5.546;2023-03-14T05:09:17;8.73;;;1.73;;
67140;SDS011;54058;52.010;5.546;2023-03-14T05:11:43;9.05;;;1.73;;
67140;SDS011;54058;52.010;5.546;2023-03-14T05:14:09;8.27;;;1.42;;
67140;SDS011;54058;52.010;5.546;2023-03-14T05:16:34;7.63;;;1.50;;
67140;SDS011;54058;52.010;5.546;2023-03-14T05:19:00;4.85;;;1.65;;
67140;SDS011;54058;52.010;5.546;2023-03-14T05:21:26;8.00;;;1.83;;
67140;SDS011;54058;52.010;5.546;2023-03-14T05:23:52;7.18;;;1.92;;
67140;SDS011;54058;52.010;5.546;2023-03-14T05:26:18;2.63;;;1.15;;
67140;SDS011;54058;52.010;5.546;2023-03-14T05:28:43;5.22;;;1.55;;
67140;SDS011;54058;52.010;5.546;2023-03-14T05:31:09;6.40;;;1.58;;
67140;SDS011;54058;52.010;5.546;2023-03-14T05:33:35;8.05;;;1.83;;
67140;SDS011;54058;52.010;5.546;2023-03-14T05:36:01;7.90;;;1.42;;
67140;SDS011;54058;52.010;5.546;2023-03-14T05:38:26;5.10;;;1.80;;
67140;SDS011;54058;52.010;5.546;2023-03-14T05:40:52;7.55;;;1.60;;
67140;SDS011;54058;52.010;5.546;2023-03-14T05:43:18;4.45;;;1.67;;
67140;SDS011;54058;52.010;5.546;2023-03-14T05:45:43;5.38;;;1.67;;
67140;SDS011;54058;52.010;5.546;2023-03-14T05:48:09;9.60;;;1.90;;
67140;SDS011;54058;52.010;5.546;2023-03-14T05:50:35;2.70;;;1.40;;
67140;SDS011;54058;52.010;5.546;2023-03-14T05:53:01;6.72;;;1.88;;
67140;SDS011;54058;52.010;5.546;2023-03-14T05:55:27;6.63;;;1.60;;
67140;SDS011;54058;52.010;5.546;2023-03-14T05:57:53;7.20;;;1.95;;
67140;SDS011;54058;52.010;5.546;2023-03-14T06:00:19;7.07;;;1.63;;
67140;SDS011;54058;52.010;5.546;2023-03-14T06:02:45;8.03;;;1.93;;
67140;SDS011;54058;52.010;5.546;2023-03-14T06:05:11;4.15;;;1.58;;
67140;SDS011;54058;52.010;5.546;2023-03-14T06:07:37;4.47;;;1.48;;
67140;SDS011;54058;52.010;5.546;2023-03-14T06:10:03;2.88;;;1.23;;
67140;SDS011;54058;52.010;5.546;2023-03-14T06:12:29;4.43;;;1.80;;
67140;SDS011;54058;52.010;5.546;2023-03-14T06:14:54;8.25;;;1.80;;
67140;SDS011;54058;52.010;5.546;2023-03-14T06:17:20;8.85;;;2.30;;
67140;SDS011;54058;52.010;5.546;2023-03-14T06:19:46;4.88;;;1.90;;
67140;SDS011;54058;52.010;5.546;2023-03-14T06:22:11;4.63;;;2.28;;
67140;SDS011;54058;52.010;5.546;2023-03-14T06:24:37;7.07;;;1.85;;
67140;SDS011;54058;52.010;5.546;2023-03-14T06:27:03;6.05;;;2.30;;
67140;SDS011;54058;52.010;5.546;2023-03-14T06:29:29;8.40;;;2.28;;
67140;SDS011;54058;52.010;5.546;2023-03-14T06:31:54;7.53;;;3.05;;
67140;SDS011;54058;52.010;5.546;2023-03-14T06:34:20;8.45;;;2.97;;
67140;SDS011;54058;52.010;5.546;2023-03-14T06:36:46;10.10;;;2.05;;
67140;SDS011;54058;52.010;5.546;2023-03-14T06:39:12;6.75;;;3.00;;
67140;SDS011;54058;52.010;5.546;2023-03-14T06:41:37;6.68;;;2.80;;
67140;SDS011;54058;52.010;5.546;2023-03-14T06:44:03;8.10;;;3.22;;
67140;SDS011;54058;52.010;5.546;2023-03-14T06:46:29;9.82;;;2.95;;
67140;SDS011;54058;52.010;5.546;2023-03-14T06:48:54;8.30;;;3.78;;
67140;SDS011;54058;52.010;5.546;2023-03-14T06:51:20;5.88;;;3.05;;
67140;SDS011;54058;52.010;5.546;2023-03-14T06:53:46;10.23;;;3.47;;
67140;SDS011;54058;52.010;5.546;2023-03-14T06:56:11;8.55;;;4.10;;
67140;SDS011;54058;52.010;5.546;2023-03-14T06:58:37;11.50;;;4.07;;
67140;SDS011;54058;52.010;5.546;2023-03-14T07:01:02;7.40;;;3.25;;
67140;SDS011;54058;52.010;5.546;2023-03-14T07:03:28;4.90;;;2.75;;
67140;SDS011;54058;52.010;5.546;2023-03-14T07:05:54;2.83;;;1.88;;
67140;SDS011;54058;52.010;5.546;2023-03-14T07:08:20;3.88;;;1.77;;
67140;SDS011;54058;52.010;5.546;2023-03-14T07:10:46;4.60;;;1.70;;
67140;SDS011;54058;52.010;5.546;2023-03-14T07:13:11;1.73;;;0.65;;
67140;SDS011;54058;52.010;5.546;2023-03-14T07:15:37;1.80;;;0.50;;
67140;SDS011;54058;52.010;5.546;2023-03-14T07:18:02;1.50;;;0.60;;
67140;SDS011;54058;52.010;5.546;2023-03-14T07:20:28;1.95;;;0.57;;
67140;SDS011;54058;52.010;5.546;2023-03-14T07:22:57;2.17;;;0.52;;
67140;SDS011;54058;52.010;5.546;2023-03-14T07:25:24;2.63;;;0.70;;
67140;SDS011;54058;52.010;5.546;2023-03-14T07:27:50;2.92;;;0.50;;
67140;SDS011;54058;52.010;5.546;2023-03-14T07:30:16;6.60;;;0.60;;
67140;SDS011;54058;52.010;5.546;2023-03-14T07:32:41;2.15;;;0.50;;
67140;SDS011;54058;52.010;5.546;2023-03-14T07:35:07;2.22;;;0.80;;
67140;SDS011;54058;52.010;5.546;2023-03-14T07:37:33;6.75;;;0.80;;
67140;SDS011;54058;52.010;5.546;2023-03-14T07:39:59;1.35;;;0.43;;
67140;SDS011;54058;52.010;5.546;2023-03-14T07:42:25;2.33;;;0.60;;
67140;SDS011;54058;52.010;5.546;2023-03-14T07:44:50;0.52;;;0.50;;
67140;SDS011;54058;52.010;5.546;2023-03-14T07:47:16;2.30;;;0.50;;
67140;SDS011;54058;52.010;5.546;2023-03-14T07:49:42;4.20;;;0.90;;
67140;SDS011;54058;52.010;5.546;2023-03-14T07:52:07;2.67;;;0.73;;
67140;SDS011;54058;52.010;5.546;2023-03-14T07:54:33;1.40;;;0.80;;
67140;SDS011;54058;52.010;5.546;2023-03-14T07:56:58;1.65;;;1.20;;
67140;SDS011;54058;52.010;5.546;2023-03-14T07:59:25;1.98;;;0.88;;
67140;SDS011;54058;52.010;5.546;2023-03-14T08:01:51;3.40;;;0.80;;
67140;SDS011;54058;52.010;5.546;2023-03-14T08:04:17;0.55;;;0.50;;
67140;SDS011;54058;52.010;5.546;2023-03-14T08:06:43;2.30;;;0.60;;
67140;SDS011;54058;52.010;5.546;2023-03-14T08:09:09;1.88;;;0.75;;
67140;SDS011;54058;52.010;5.546;2023-03-14T08:11:35;2.67;;;0.60;;
67140;SDS011;54058;52.010;5.546;2023-03-14T08:14:01;3.70;;;0.88;;
67140;SDS011;54058;52.010;5.546;2023-03-14T08:16:26;1.90;;;0.60;;
67140;SDS011;54058;52.010;5.546;2023-03-14T08:18:52;2.40;;;0.50;;
67140;SDS011;54058;52.010;5.546;2023-03-14T08:21:18;2.67;;;0.60;;
67140;SDS011;54058;52.010;5.546;2023-03-14T08:23:43;2.85;;;0.60;;
67140;SDS011;54058;52.010;5.546;2023-03-14T08:26:09;3.70;;;0.85;;
67140;SDS011;54058;52.010;5.546;2023-03-14T08:28:35;6.45;;;1.00;;
67140;SDS011;54058;52.010;5.546;2023-03-14T08:31:00;6.38;;;1.05;;
67140;SDS011;54058;52.010;5.546;2023-03-14T08:33:27;5.53;;;0.90;;
67140;SDS011;54058;52.010;5.546;2023-03-14T08:35:54;6.53;;;0.93;;
67140;SDS011;54058;52.010;5.546;2023-03-14T08:38:23;6.45;;;0.90;;
67140;SDS011;54058;52.010;5.546;2023-03-14T08:40:48;11.35;;;0.95;;
67140;SDS011;54058;52.010;5.546;2023-03-14T08:43:15;4.25;;;0.65;;
67140;SDS011;54058;52.010;5.546;2023-03-14T08:45:40;6.30;;;0.88;;
67140;SDS011;54058;52.010;5.546;2023-03-14T08:48:06;6.22;;;0.88;;
67140;SDS011;54058;52.010;5.546;2023-03-14T08:50:32;6.15;;;0.70;;
67140;SDS011;54058;52.010;5.546;2023-03-14T08:52:58;1.73;;;0.60;;
67140;SDS011;54058;52.010;5.546;2023-03-14T08:55:25;6.63;;;1.15;;
67140;SDS011;54058;52.010;5.546;2023-03-14T08:57:52;5.00;;;1.50;;
67140;SDS011;54058;52.010;5.546;2023-03-14T09:00:18;4.22;;;0.60;;
67140;SDS011;54058;52.010;5.546;2023-03-14T09:02:44;6.78;;;0.73;;
67140;SDS011;54058;52.010;5.546;2023-03-14T09:05:10;7.88;;;0.73;;
67140;SDS011;54058;52.010;5.546;2023-03-14T09:07:36;7.22;;;0.65;;
67140;SDS011;54058;52.010;5.546;2023-03-14T09:10:03;1.10;;;0.45;;
67140;SDS011;54058;52.010;5.546;2023-03-14T09:12:29;3.42;;;0.55;;
67140;SDS011;54058;52.010;5.546;2023-03-14T09:14:55;5.28;;;0.52;;
67140;SDS011;54058;52.010;5.546;2023-03-14T09:17:21;4.32;;;0.60;;
67140;SDS011;54058;52.010;5.546;2023-03-14T09:19:46;6.82;;;0.80;;
67140;SDS011;54058;52.010;5.546;2023-03-14T09:22:12;2.45;;;0.68;;
67140;SDS011;54058;52.010;5.546;2023-03-14T09:24:38;8.63;;;1.00;;
67140;SDS011;54058;52.010;5.546;2023-03-14T09:27:05;11.00;;;1.25;;
67140;SDS011;54058;52.010;5.546;2023-03-14T09:29:31;5.43;;;0.77;;
67140;SDS011;54058;52.010;5.546;2023-03-14T09:31:58;2.95;;;0.82;;
67140;SDS011;54058;52.010;5.546;2023-03-14T09:34:24;3.63;;;0.75;;
67140;SDS011;54058;52.010;5.546;2023-03-14T09:36:49;9.55;;;1.00;;
67140;SDS011;54058;52.010;5.546;2023-03-14T09:39:15;8.55;;;1.20;;
67140;SDS011;54058;52.010;5.546;2023-03-14T09:41:46;10.45;;;1.23;;
67140;SDS011;54058;52.010;5.546;2023-03-14T09:44:16;12.10;;;1.20;;
67140;SDS011;54058;52.010;5.546;2023-03-14T09:47:05;12.23;;;1.10;;
67140;SDS011;54058;52.010;5.546;2023-03-14T09:49:41;8.45;;;1.50;;
67140;SDS011;54058;52.010;5.546;2023-03-14T09:57:39;12.05;;;2.00;;
67140;SDS011;54058;52.010;5.546;2023-03-14T10:00:25;17.25;;;2.38;;
67140;SDS011;54058;52.010;5.546;2023-03-14T10:02:57;17.42;;;1.80;;
67140;SDS011;54058;52.010;5.546;2023-03-14T10:05:29;13.03;;;1.77;;
67140;SDS011;54058;52.010;5.546;2023-03-14T10:07:55;12.35;;;2.13;;
67140;SDS011;54058;52.010;5.546;2023-03-14T10:10:21;15.35;;;2.22;;
67140;SDS011;54058;52.010;5.546;2023-03-14T10:13:10;15.13;;;1.75;;
67140;SDS011;54058;52.010;5.546;2023-03-14T10:16:02;12.45;;;2.92;;
67140;SDS011;54058;52.010;5.546;2023-03-14T10:18:31;15.65;;;1.88;;
67140;SDS011;54058;52.010;5.546;2023-03-14T10:24:46;19.52;;;2.35;;
67140;SDS011;54058;52.010;5.546;2023-03-14T10:27:04;18.23;;;2.45;;
67140;SDS011;54058;52.010;5.546;2023-03-14T10:32:18;17.60;;;1.90;;
67140;SDS011;54058;52.010;5.546;2023-03-14T10:34:45;14.88;;;2.28;;
67140;SDS011;54058;52.010;5.546;2023-03-14T10:37:50;27.98;;;3.85;;
67140;SDS011;54058;52.010;5.546;2023-03-14T10:40:28;25.40;;;2.67;;
67140;SDS011;54058;52.010;5.546;2023-03-14T10:42:57;13.32;;;2.10;;
67140;SDS011;54058;52.010;5.546;2023-03-14T10:45:35;22.52;;;2.05;;
67140;SDS011;54058;52.010;5.546;2023-03-14T10:48:50;21.55;;;2.17;;
67140;SDS011;54058;52.010;5.546;2023-03-14T10:51:06;15.98;;;2.58;;
67140;SDS011;54058;52.010;5.546;2023-03-14T10:53:39;18.05;;;2.53;;
67140;SDS011;54058;52.010;5.546;2023-03-14T10:56:15;19.67;;;2.33;;
67140;SDS011;54058;52.010;5.546;2023-03-14T10:58:44;23.10;;;4.53;;
67140;SDS011;54058;52.010;5.546;2023-03-14T11:04:01;22.75;;;2.50;;
67140;SDS011;54058;52.010;5.546;2023-03-14T11:15:27;19.85;;;2.50;;
67140;SDS011;54058;52.010;5.546;2023-03-14T11:20:48;15.77;;;2.58;;
67140;SDS011;54058;52.010;5.546;2023-03-14T11:23:20;28.88;;;2.95;;
67140;SDS011;54058;52.010;5.546;2023-03-14T11:25:56;20.42;;;2.67;;
67140;SDS011;54058;52.010;5.546;2023-03-14T11:28:29;21.55;;;2.53;;
67140;SDS011;54058;52.010;5.546;2023-03-14T11:31:10;18.10;;;2.83;;
67140;SDS011;54058;52.010;5.546;2023-03-14T11:33:46;22.50;;;2.88;;
67140;SDS011;54058;52.010;5.546;2023-03-14T11:36:31;18.60;;;2.97;;
67140;SDS011;54058;52.010;5.546;2023-03-14T11:39:02;26.55;;;2.65;;
67140;SDS011;54058;52.010;5.546;2023-03-14T11:41:36;28.35;;;3.10;;
67140;SDS011;54058;52.010;5.546;2023-03-14T11:51:58;15.88;;;2.00;;
67140;SDS011;54058;52.010;5.546;2023-03-14T11:54:33;15.85;;;2.90;;
67140;SDS011;54058;52.010;5.546;2023-03-14T11:57:18;20.77;;;3.30;;
67140;SDS011;54058;52.010;5.546;2023-03-14T11:59:47;18.42;;;2.25;;
67140;SDS011;54058;52.010;5.546;2023-03-14T12:05:27;17.48;;;2.25;;
67140;SDS011;54058;52.010;5.546;2023-03-14T12:08:11;14.82;;;1.75;;
67140;SDS011;54058;52.010;5.546;2023-03-14T12:10:54;16.05;;;1.98;;
67140;SDS011;54058;52.010;5.546;2023-03-14T12:13:27;16.08;;;1.77;;
67140;SDS011;54058;52.010;5.546;2023-03-14T12:15:58;19.70;;;2.00;;
67140;SDS011;54058;52.010;5.546;2023-03-14T12:20:56;8.70;;;1.40;;
67140;SDS011;54058;52.010;5.546;2023-03-14T12:23:24;12.68;;;1.48;;
67140;SDS011;54058;52.010;5.546;2023-03-14T12:28:38;11.50;;;1.98;;
67140;SDS011;54058;52.010;5.546;2023-03-14T12:34:01;12.93;;;2.20;;
67140;SDS011;54058;52.010;5.546;2023-03-14T12:42:11;12.20;;;1.63;;
67140;SDS011;54058;52.010;5.546;2023-03-14T12:44:46;6.85;;;1.40;;
67140;SDS011;54058;52.010;5.546;2023-03-14T12:49:41;12.57;;;1.27;;
67140;SDS011;54058;52.010;5.546;2023-03-14T12:52:15;8.67;;;1.50;;
67140;SDS011;54058;52.010;5.546;2023-03-14T12:54:52;7.75;;;2.15;;
67140;SDS011;54058;52.010;5.546;2023-03-14T12:57:28;12.43;;;1.63;;
67140;SDS011;54058;52.010;5.546;2023-03-14T13:00:18;10.35;;;1.85;;
67140;SDS011;54058;52.010;5.546;2023-03-14T13:02:46;12.00;;;1.38;;
67140;SDS011;54058;52.010;5.546;2023-03-14T13:15:40;7.70;;;1.25;;
67140;SDS011;54058;52.010;5.546;2023-03-14T13:18:12;8.45;;;1.73;;
67140;SDS011;54058;52.010;5.546;2023-03-14T13:20:59;10.00;;;1.10;;
67140;SDS011;54058;52.010;5.546;2023-03-14T13:23:31;7.93;;;1.58;;
67140;SDS011;54058;52.010;5.546;2023-03-14T13:25:59;8.48;;;1.02;;
67140;SDS011;54058;52.010;5.546;2023-03-14T13:28:26;8.23;;;1.10;;
67140;SDS011;54058;52.010;5.546;2023-03-14T13:30:55;6.07;;;1.10;;
67140;SDS011;54058;52.010;5.546;2023-03-14T13:33:23;7.63;;;1.42;;
67140;SDS011;54058;52.010;5.546;2023-03-14T13:35:54;9.85;;;1.48;;
67140;SDS011;54058;52.010;5.546;2023-03-14T13:38:23;10.43;;;1.80;;
67140;SDS011;54058;52.010;5.546;2023-03-14T13:40:51;10.63;;;1.40;;
67140;SDS011;54058;52.010;5.546;2023-03-14T13:46:12;6.13;;;1.63;;
67140;SDS011;54058;52.010;5.546;2023-03-14T13:48:50;4.70;;;1.10;;
67140;SDS011;54058;52.010;5.546;2023-03-14T13:51:23;9.63;;;1.00;;
67140;SDS011;54058;52.010;5.546;2023-03-14T13:53:53;6.93;;;1.10;;
67140;SDS011;54058;52.010;5.546;2023-03-14T13:56:24;9.10;;;1.30;;
67140;SDS011;54058;52.010;5.546;2023-03-14T13:58:52;3.88;;;0.77;;
67140;SDS011;54058;52.010;5.546;2023-03-14T14:01:30;6.38;;;1.00;;
67140;SDS011;54058;52.010;5.546;2023-03-14T14:04:02;6.88;;;0.98;;
67140;SDS011;54058;52.010;5.546;2023-03-14T14:06:33;6.57;;;1.85;;
67140;SDS011;54058;52.010;5.546;2023-03-14T14:14:26;14.93;;;1.40;;
67140;SDS011;54058;52.010;5.546;2023-03-14T14:16:57;4.20;;;0.95;;
67140;SDS011;54058;52.010;5.546;2023-03-14T14:19:25;8.63;;;1.40;;
67140;SDS011;54058;52.010;5.546;2023-03-14T14:21:54;9.43;;;1.17;;
67140;SDS011;54058;52.010;5.546;2023-03-14T14:24:21;10.52;;;1.40;;
67140;SDS011;54058;52.010;5.546;2023-03-14T14:26:53;9.85;;;1.45;;
67140;SDS011;54058;52.010;5.546;2023-03-14T14:29:25;4.97;;;1.42;;
67140;SDS011;54058;52.010;5.546;2023-03-14T14:32:01;15.15;;;1.75;;
67140;SDS011;54058;52.010;5.546;2023-03-14T14:34:46;10.75;;;2.15;;
67140;SDS011;54058;52.010;5.546;2023-03-14T14:39:47;5.57;;;1.40;;
67140;SDS011;54058;52.010;5.546;2023-03-14T14:42:15;9.10;;;1.73;;
67140;SDS011;54058;52.010;5.546;2023-03-14T14:44:43;8.80;;;1.45;;
67140;SDS011;54058;52.010;5.546;2023-03-14T14:47:13;6.38;;;1.17;;
67140;SDS011;54058;52.010;5.546;2023-03-14T14:49:39;6.30;;;1.20;;
67140;SDS011;54058;52.010;5.546;2023-03-14T14:52:09;16.90;;;1.60;;
67140;SDS011;54058;52.010;5.546;2023-03-14T14:54:42;10.88;;;1.15;;
67140;SDS011;54058;52.010;5.546;2023-03-14T14:57:22;11.95;;;1.83;;
67140;SDS011;54058;52.010;5.546;2023-03-14T14:59:50;14.93;;;1.35;;
67140;SDS011;54058;52.010;5.546;2023-03-14T15:05:24;7.97;;;1.33;;
67140;SDS011;54058;52.010;5.546;2023-03-14T15:07:52;10.23;;;2.05;;
67140;SDS011;54058;52.010;5.546;2023-03-14T15:10:19;6.68;;;1.10;;
67140;SDS011;54058;52.010;5.546;2023-03-14T15:12:46;9.15;;;1.50;;
67140;SDS011;54058;52.010;5.546;2023-03-14T15:15:12;6.53;;;1.33;;
67140;SDS011;54058;52.010;5.546;2023-03-14T15:17:39;10.75;;;1.48;;
67140;SDS011;54058;52.010;5.546;2023-03-14T15:20:05;7.20;;;1.33;;
67140;SDS011;54058;52.010;5.546;2023-03-14T15:22:35;5.75;;;1.23;;
67140;SDS011;54058;52.010;5.546;2023-03-14T15:25:00;10.63;;;1.33;;
67140;SDS011;54058;52.010;5.546;2023-03-14T15:27:26;14.02;;;1.40;;
67140;SDS011;54058;52.010;5.546;2023-03-14T15:29:55;4.18;;;1.15;;
67140;SDS011;54058;52.010;5.546;2023-03-14T15:32:21;9.35;;;1.23;;
67140;SDS011;54058;52.010;5.546;2023-03-14T15:34:47;8.90;;;1.15;;
67140;SDS011;54058;52.010;5.546;2023-03-14T15:37:13;9.32;;;1.80;;
67140;SDS011;54058;52.010;5.546;2023-03-14T15:39:41;6.13;;;1.10;;
67140;SDS011;54058;52.010;5.546;2023-03-14T15:42:09;4.97;;;1.00;;
67140;SDS011;54058;52.010;5.546;2023-03-14T15:44:35;6.60;;;1.48;;
67140;SDS011;54058;52.010;5.546;2023-03-14T15:47:01;7.18;;;1.42;;
67140;SDS011;54058;52.010;5.546;2023-03-14T15:49:27;16.73;;;1.35;;
67140;SDS011;54058;52.010;5.546;2023-03-14T15:51:53;7.00;;;1.08;;
67140;SDS011;54058;52.010;5.546;2023-03-14T15:54:19;12.50;;;1.80;;
67140;SDS011;54058;52.010;5.546;2023-03-14T15:56:44;4.35;;;1.15;;
67140;SDS011;54058;52.010;5.546;2023-03-14T15:59:10;6.78;;;1.27;;
67140;SDS011;54058;52.010;5.546;2023-03-14T16:01:36;16.88;;;1.08;;
67140;SDS011;54058;52.010;5.546;2023-03-14T16:04:01;6.22;;;0.95;;
67140;SDS011;54058;52.010;5.546;2023-03-14T16:06:28;7.90;;;0.65;;
67140;SDS011;54058;52.010;5.546;2023-03-14T16:08:55;10.38;;;0.88;;
67140;SDS011;54058;52.010;5.546;2023-03-14T16:11:21;6.32;;;1.10;;
67140;SDS011;54058;52.010;5.546;2023-03-14T16:13:47;7.45;;;1.33;;
67140;SDS011;54058;52.010;5.546;2023-03-14T16:16:13;10.73;;;1.25;;
67140;SDS011;54058;52.010;5.546;2023-03-14T16:18:39;8.50;;;1.10;;
67140;SDS011;54058;52.010;5.546;2023-03-14T16:21:07;5.70;;;1.00;;
67140;SDS011;54058;52.010;5.546;2023-03-14T16:23:35;12.18;;;1.40;;